createdAt,value
2019-02-06T00:04:08.231Z,2.63
2019-02-06T00:09:10.663Z,2.62
2019-02-06T00:14:13.125Z,2.61
2019-02-06T00:19:15.548Z,2.55
2019-02-06T00:24:18.007Z,2.59
2019-02-06T00:29:20.441Z,2.56
2019-02-06T00:34:22.887Z,2.54
2019-02-06T00:39:25.331Z,2.55
2019-02-06T00:44:27.815Z,2.60
2019-02-06T00:49:30.275Z,2.61
2019-02-06T00:54:33.454Z,2.65
2019-02-06T00:59:35.907Z,2.66
2019-02-06T01:04:38.472Z,2.68
2019-02-06T01:09:40.912Z,2.69
2019-02-06T01:14:43.351Z,2.64
2019-02-06T01:19:45.793Z,2.60
2019-02-06T01:24:48.252Z,2.59
2019-02-06T01:29:50.689Z,2.58
2019-02-06T01:34:53.141Z,2.57
2019-02-06T01:39:55.588Z,2.56
2019-02-06T01:44:58.132Z,2.50
2019-02-06T01:50:00.520Z,2.47
2019-02-06T01:55:02.970Z,2.36
2019-02-06T02:00:20.510Z,2.35
2019-02-06T02:05:22.960Z,2.30
2019-02-06T02:10:25.433Z,2.27
2019-02-06T02:15:28.037Z,2.19
2019-02-06T02:20:30.488Z,2.17
2019-02-06T02:25:32.923Z,2.18
2019-02-06T02:30:41.465Z,2.12
2019-02-06T02:35:43.906Z,2.07
2019-02-06T02:40:46.783Z,2.04
2019-02-06T02:45:49.232Z,2.02
2019-02-06T02:50:51.669Z,2.04
2019-02-06T02:55:54.089Z,2.02
2019-02-06T03:01:05.735Z,1.99
2019-02-06T03:06:08.063Z,1.93
2019-02-06T03:11:10.508Z,1.90
2019-02-06T03:16:12.946Z,1.88
2019-02-06T03:21:15.499Z,1.81
2019-02-06T03:26:17.941Z,1.83
2019-02-06T03:31:20.390Z,1.81
2019-02-06T03:36:22.823Z,1.72
2019-02-06T03:41:25.265Z,1.65
2019-02-06T03:46:27.706Z,1.55
2019-02-06T03:51:30.160Z,1.45
2019-02-06T03:56:32.604Z,1.42
2019-02-06T04:01:35.071Z,1.43
2019-02-06T04:06:37.517Z,1.41
2019-02-06T04:11:39.966Z,1.36
2019-02-06T04:16:42.456Z,1.33
2019-02-06T04:21:44.861Z,1.34
2019-02-06T04:26:47.302Z,1.33
2019-02-06T04:31:49.736Z,1.35
2019-02-06T04:36:52.187Z,1.27
2019-02-06T04:41:54.635Z,1.26
2019-02-06T04:46:57.070Z,1.27
2019-02-06T04:51:59.517Z,1.32
2019-02-06T04:57:01.973Z,1.33
2019-02-06T05:02:04.411Z,1.22
2019-02-06T05:07:18.367Z,1.18
2019-02-06T05:12:09.704Z,1.15
2019-02-06T05:17:11.750Z,1.12
2019-02-06T05:22:14.198Z,1.06
2019-02-06T05:27:16.651Z,1.07
2019-02-06T05:32:19.270Z,1.12
2019-02-06T05:37:31.652Z,1.18
2019-02-06T05:42:24.144Z,1.09
2019-02-06T05:47:26.598Z,1.02
2019-02-06T05:52:29.139Z,1.03
2019-02-06T05:57:31.593Z,1.02
2019-02-06T06:02:34.046Z,1.02
2019-02-06T06:07:44.449Z,0.96
2019-02-06T06:12:38.949Z,1.00
2019-02-06T06:17:41.440Z,0.96
2019-02-06T06:22:43.948Z,0.99
2019-02-06T06:27:46.387Z,0.96
2019-02-06T06:32:48.980Z,1.00
2019-02-06T06:38:01.264Z,1.05
2019-02-06T06:42:53.723Z,1.12
2019-02-06T06:47:56.165Z,1.15
2019-02-06T06:52:58.613Z,1.20
2019-02-06T06:58:01.051Z,1.23
2019-02-06T07:03:03.504Z,1.29
2019-02-06T07:08:09.567Z,1.36
2019-02-06T07:13:08.379Z,1.43
2019-02-06T07:18:10.818Z,1.48
2019-02-06T07:23:13.271Z,1.63
2019-02-06T07:28:15.712Z,1.75
2019-02-06T07:33:18.157Z,1.83
2019-02-06T07:38:24.395Z,1.99
2019-02-06T07:43:23.077Z,2.22
2019-02-06T07:48:25.588Z,2.47
2019-02-06T07:53:28.035Z,2.79
2019-02-06T07:58:30.508Z,2.99
2019-02-06T08:03:32.951Z,3.23
2019-02-06T08:08:36.436Z,3.50
2019-02-06T08:13:37.849Z,3.83
2019-02-06T08:18:40.304Z,3.96
2019-02-06T08:23:42.855Z,4.43
2019-02-06T08:28:45.186Z,4.63
2019-02-06T08:33:47.637Z,4.79
2019-02-06T08:38:50.474Z,4.69
2019-02-06T08:43:52.523Z,4.65
2019-02-06T08:48:54.975Z,4.48
2019-02-06T08:53:57.425Z,4.60
2019-02-06T08:58:59.880Z,4.51
2019-02-06T09:04:02.328Z,4.53
2019-02-06T09:09:04.776Z,4.47
2019-02-06T09:14:07.221Z,4.66
2019-02-06T09:19:09.655Z,4.95
2019-02-06T09:24:12.101Z,5.43
2019-02-06T09:29:14.543Z,6.07
2019-02-06T09:34:16.996Z,6.71
2019-02-06T09:39:19.657Z,6.92
2019-02-06T09:44:22.107Z,6.50
2019-02-06T09:49:24.551Z,6.66
2019-02-06T09:54:27.004Z,6.94
2019-02-06T09:59:29.470Z,7.01
2019-02-06T10:04:31.920Z,6.75
2019-02-06T10:09:34.384Z,6.58
2019-02-06T10:14:36.828Z,6.55
2019-02-06T10:19:42.407Z,6.80
2019-02-06T10:24:42.228Z,6.68
2019-02-06T10:29:44.689Z,6.27
2019-02-06T10:34:47.136Z,6.28
2019-02-06T10:39:49.585Z,6.28
2019-02-06T10:44:52.032Z,6.37
2019-02-06T10:49:54.483Z,6.18
2019-02-06T10:54:56.949Z,6.07
2019-02-06T10:59:59.387Z,6.15
2019-02-06T11:05:01.840Z,6.07
2019-02-06T11:10:04.295Z,5.71
2019-02-06T11:15:06.724Z,5.78
2019-02-06T11:20:09.246Z,5.62
2019-02-06T11:25:11.685Z,5.60
2019-02-06T11:30:16.839Z,5.65
2019-02-06T11:35:19.283Z,5.75
2019-02-06T11:40:21.731Z,5.81
2019-02-06T11:45:24.177Z,5.80
2019-02-06T11:50:32.595Z,5.96
2019-02-06T11:55:35.043Z,6.03
2019-02-06T12:00:40.417Z,6.06
2019-02-06T12:05:42.856Z,6.09
2019-02-06T12:10:45.303Z,6.31
2019-02-06T12:15:47.742Z,6.31
2019-02-06T12:20:50.197Z,6.43
2019-02-06T12:25:52.632Z,6.55
2019-02-06T12:30:56.190Z,6.65
2019-02-06T12:35:57.540Z,6.74
2019-02-06T12:40:59.993Z,6.75
2019-02-06T12:46:02.464Z,6.79
2019-02-06T12:51:04.981Z,6.81
2019-02-06T12:56:07.418Z,6.94
2019-02-06T13:01:09.898Z,6.95
2019-02-06T13:06:12.354Z,6.88
2019-02-06T13:11:14.780Z,6.84
2019-02-06T13:16:17.235Z,6.65
2019-02-06T13:21:19.708Z,6.88
2019-02-06T13:26:22.174Z,7.16
2019-02-06T13:31:24.619Z,7.58
2019-02-06T13:36:27.078Z,7.86
2019-02-06T13:41:29.533Z,7.85
2019-02-06T13:46:31.982Z,7.51
2019-02-06T13:51:34.425Z,7.42
2019-02-06T13:56:36.886Z,7.24
2019-02-06T14:01:39.334Z,7.00
2019-02-06T14:06:41.898Z,6.99
2019-02-06T14:11:44.352Z,7.08
2019-02-06T14:16:46.794Z,7.24
2019-02-06T14:21:49.257Z,7.48
2019-02-06T14:26:51.698Z,7.76
2019-02-06T14:32:15.528Z,7.74
2019-02-06T14:37:33.711Z,7.80
2019-02-06T14:43:00.825Z,7.60
2019-02-06T14:48:09.075Z,7.56
2019-02-06T14:53:14.325Z,7.42
2019-02-06T14:58:37.893Z,7.39
2019-02-06T15:03:43.171Z,7.18
2019-02-06T15:08:45.628Z,7.12
2019-02-06T15:14:18.940Z,7.01
2019-02-06T15:19:24.077Z,6.86
2019-02-06T15:24:45.134Z,6.84
2019-02-06T15:29:56.345Z,6.71
2019-02-06T15:35:07.950Z,6.69
2019-02-06T15:40:34.446Z,6.60
2019-02-06T15:45:52.128Z,6.56
2019-02-06T15:51:06.505Z,6.33
2019-02-06T15:56:08.971Z,6.29
2019-02-06T16:01:26.753Z,6.24
2019-02-06T16:06:35.001Z,6.10
2019-02-06T16:11:42.410Z,5.92
2019-02-06T16:17:10.920Z,5.62
2019-02-06T16:22:22.567Z,5.36
2019-02-06T16:27:28.032Z,5.33
2019-02-06T16:32:36.502Z,5.13
2019-02-06T16:37:57.263Z,4.88
2019-02-06T16:43:23.893Z,4.48
2019-02-06T16:48:29.286Z,4.37
2019-02-06T16:53:53.601Z,4.20
2019-02-06T16:58:59.043Z,3.98
2019-02-06T17:04:22.896Z,3.81
2019-02-06T17:09:40.451Z,3.72
2019-02-06T17:14:48.875Z,3.58
2019-02-06T17:20:16.110Z,3.51
2019-02-06T17:25:18.563Z,3.47
2019-02-06T17:30:23.707Z,3.49
2019-02-06T17:35:41.303Z,3.24
2019-02-06T17:40:43.764Z,3.12
2019-02-06T17:46:01.169Z,3.05
2019-02-06T17:51:21.796Z,2.92
2019-02-06T17:56:24.243Z,2.75
2019-02-06T18:01:26.730Z,2.72
2019-02-06T18:06:29.192Z,2.60
2019-02-06T18:11:31.652Z,2.76
2019-02-06T18:16:34.102Z,2.62
2019-02-06T18:21:36.561Z,2.46
2019-02-06T18:26:39.045Z,2.54
2019-02-06T18:31:41.512Z,2.63
2019-02-06T18:36:44.033Z,2.73
2019-02-06T18:41:46.535Z,2.65
2019-02-06T18:46:48.979Z,2.56
2019-02-06T18:51:51.454Z,2.64
2019-02-06T18:56:53.908Z,2.76
2019-02-06T19:01:56.395Z,2.67
2019-02-06T19:06:58.842Z,2.90
2019-02-06T19:12:01.273Z,3.03
2019-02-06T19:17:03.756Z,3.03
2019-02-06T19:22:06.216Z,3.01
2019-02-06T19:27:08.700Z,2.93
2019-02-06T19:32:11.169Z,2.87
2019-02-06T19:37:13.638Z,2.96
2019-02-06T19:42:16.090Z,3.01
2019-02-06T19:47:18.658Z,2.94
2019-02-06T19:52:21.058Z,2.90
2019-02-06T19:57:26.043Z,2.85
2019-02-06T20:02:26.017Z,2.83
2019-02-06T20:07:28.487Z,2.80
2019-02-06T20:12:30.981Z,2.76
2019-02-06T20:17:33.435Z,2.71
2019-02-06T20:22:35.890Z,2.74
2019-02-06T20:27:38.353Z,2.78
2019-02-06T20:32:40.837Z,2.90
2019-02-06T20:37:43.344Z,2.99
2019-02-06T20:42:45.797Z,3.05
2019-02-06T20:47:48.270Z,3.13
2019-02-06T20:52:50.731Z,3.10
2019-02-06T20:57:53.190Z,3.05
2019-02-06T21:02:55.644Z,3.03
2019-02-06T21:07:58.103Z,3.01
2019-02-06T21:13:00.560Z,3.00
2019-02-06T21:18:03.027Z,2.95
2019-02-06T21:23:05.489Z,2.91
2019-02-06T21:28:07.958Z,2.88
2019-02-06T21:33:10.427Z,2.73
2019-02-06T21:38:12.869Z,2.69
2019-02-06T21:43:15.369Z,2.52
2019-02-06T21:48:17.784Z,2.56
2019-02-06T21:53:20.244Z,2.48
2019-02-06T21:58:22.791Z,2.48
2019-02-06T22:03:25.255Z,2.42
2019-02-06T22:08:27.905Z,2.40
2019-02-06T22:13:30.337Z,2.38
2019-02-06T22:18:32.824Z,2.26
2019-02-06T22:23:36.047Z,2.19
2019-02-06T22:28:38.516Z,2.02
2019-02-06T22:33:40.959Z,1.95
2019-02-06T22:38:45.985Z,2.02
2019-02-06T22:43:48.428Z,2.12
2019-02-06T22:48:50.888Z,2.02
2019-02-06T22:53:53.372Z,1.89
2019-02-06T22:58:55.812Z,2.05
2019-02-06T23:03:58.261Z,2.15
2019-02-06T23:09:00.706Z,2.14
2019-02-06T23:14:03.163Z,2.21
2019-02-06T23:19:05.646Z,2.19
2019-02-06T23:24:08.084Z,2.10
2019-02-06T23:29:10.552Z,2.05
2019-02-06T23:34:12.994Z,2.03
2019-02-06T23:39:15.446Z,2.07
2019-02-06T23:44:28.341Z,2.09
2019-02-06T23:49:20.323Z,2.17
2019-02-06T23:54:22.789Z,2.28
2019-02-06T23:59:25.246Z,2.28
